Leland, Louisiana
Current Conditions -  °F | °C
As of 9:55 AM on Thursday 27 Nov 2014 (Local Time) from KHEZ Reporting Station
Clear Clear  
Wind Chill: 43°   Ceiling: Unl
Heat Index: 48°   Visibility: 10mi
Dew Point: 28°   Wind: 14mph
Humidity: 46%   Direction: 350°N
Pressure: 30.51"   Gusts: 20mph
Location:  31.8591°N, 91.6926°W
Report Text: KHEZ 271555Z AUTO 35012G17KT 10SM CLR 09/M02 A3051 RMK AO1
Loading
Personal Weather Stations






























Interactive Weather Map New forecast layout! Learn more

10-Day Weather Forecast

Advertisements
Track Severe Weather on mobile